Matsuyama Maru No.5 — JL6592 — position and weather

sailwx.info

Track history (hours):
 
Tides and Currents Weather Stations Pressure Air Temp Water Temp Dewpoint Dewpoint Depression Visibility Wind Speed Wind Dir Waves Ship Positions

Matsuyama Maru No.5

Last reported at 2018-Feb-22 22:26 UTC. Time now 2018-Feb-22 22:56 UTC.
Position N 40°53' E 140°46'.

Length 105 m; draft 6.5 m.

Type: Tanker. MMSI: 431501735.

Date/timePositionNaut miles runAvg speedWind from/ knotsBaromVisibWave heightAir tempDewpointWater temp
2018-Feb-22 22:26N 40°53' E 140°46'0 0.0
2018-Feb-22 21:59N 40°53' E 140°46'0 0.1
2018-Feb-22 21:31N 40°53' E 140°46'0 0.0
2018-Feb-22 21:00N 40°53' E 140°46'6 8.6
2018-Feb-22 20:19N 40°59' E 140°45'413.8
2018-Feb-22 20:01N 41°03' E 140°44'713.8
2018-Feb-22 19:31N 41°10' E 140°43'713.7
2018-Feb-22 19:00N 41°17' E 140°44'713.6
2018-Feb-22 18:30N 41°23' E 140°45'612.9
2018-Feb-22 18:01N 41°30' E 140°46'610.9
2018-Feb-22 17:28N 41°35' E 140°50'510.1
2018-Feb-22 17:00N 41°37' E 140°56'611.4
2018-Feb-22 16:31N 41°35' E 141°03'611.5
2018-Feb-22 16:00N 41°34' E 141°11'612.6
2018-Feb-22 15:30N 41°32' E 141°19'612.7
2018-Feb-22 15:00N 41°30' E 141°27'611.1
2018-Feb-22 14:31N 41°28' E 141°33'1013.8
2018-Feb-22 13:49N 41°19' E 141°37'  
2018-Feb-19 09:43N 41°24' E 141°35'315.2
2018-Feb-19 09:30N 41°27' E 141°34'714.7
2018-Feb-19 09:00N 41°34' E 141°33'714.4
2018-Feb-19 08:29N 41°42' E 141°34'714.2
2018-Feb-19 07:59N 41°49' E 141°34'0 0.0
2018-Feb-18 10:26N 41°49' E 141°34'613.5
2018-Feb-18 10:00N 41°43' E 141°34'613.0
2018-Feb-18 09:30N 41°36' E 141°33'712.7
2018-Feb-18 08:57N 41°29' E 141°33'612.6
2018-Feb-18 08:30N 41°24' E 141°33'813.5
2018-Feb-18 07:56N 41°16' E 141°33'613.2
2018-Feb-18 07:30N 41°10' E 141°33'813.5
2018-Feb-18 06:53N 41°02' E 141°33'1013.8
2018-Feb-18 06:09N 40°52' E 141°32'313.7
2018-Feb-18 05:56N 40°49' E 141°32'  
2018-Feb-14 12:23N 41°10' E 141°33'1513.9
2018-Feb-14 11:18N 41°25' E 141°33'512.6
2018-Feb-14 10:53N 41°29' E 141°30'614.6
2018-Feb-14 10:30N 41°31' E 141°23'715.0
2018-Feb-14 10:01N 41°33' E 141°13'714.3
2018-Feb-14 09:30N 41°35' E 141°04'714.7
2018-Feb-14 09:00N 41°37' E 140°55'714.2
2018-Feb-14 08:30N 41°33' E 140°47'714.6
2018-Feb-14 08:00N 41°29' E 140°39'815.2
2018-Feb-14 07:30N 41°24' E 140°31'815.3
2018-Feb-14 07:00N 41°20' E 140°22'  
Track history (hours):
 
Tides and Currents Weather Stations Pressure Air Temp Water Temp Dewpoint Dewpoint Depression Visibility Wind Speed Wind Dir Waves Ship Positions

Matsuyama Maru No.5

Last reported at 2018-Feb-22 22:26 UTC. Time now 2018-Feb-22 22:56 UTC.
Position N 40°53' E 140°46'.

Length 105 m; draft 6.5 m.

Type: Tanker. MMSI: 431501735.

Date/timePositionNaut miles runAvg speedWind from/ knotsBaromVisibWave heightAir tempDewpointWater temp
2018-Feb-22 22:26N 40°53' E 140°46'0 0.0
2018-Feb-22 21:59N 40°53' E 140°46'0 0.1
2018-Feb-22 21:31N 40°53' E 140°46'0 0.0
2018-Feb-22 21:00N 40°53' E 140°46'6 8.6
2018-Feb-22 20:19N 40°59' E 140°45'413.8
2018-Feb-22 20:01N 41°03' E 140°44'713.8
2018-Feb-22 19:31N 41°10' E 140°43'713.7
2018-Feb-22 19:00N 41°17' E 140°44'713.6
2018-Feb-22 18:30N 41°23' E 140°45'612.9
2018-Feb-22 18:01N 41°30' E 140°46'610.9
2018-Feb-22 17:28N 41°35' E 140°50'510.1
2018-Feb-22 17:00N 41°37' E 140°56'611.4
2018-Feb-22 16:31N 41°35' E 141°03'611.5
2018-Feb-22 16:00N 41°34' E 141°11'612.6
2018-Feb-22 15:30N 41°32' E 141°19'612.7
2018-Feb-22 15:00N 41°30' E 141°27'611.1
2018-Feb-22 14:31N 41°28' E 141°33'1013.8
2018-Feb-22 13:49N 41°19' E 141°37'  
2018-Feb-19 09:43N 41°24' E 141°35'315.2
2018-Feb-19 09:30N 41°27' E 141°34'714.7
2018-Feb-19 09:00N 41°34' E 141°33'714.4
2018-Feb-19 08:29N 41°42' E 141°34'714.2
2018-Feb-19 07:59N 41°49' E 141°34'0 0.0
2018-Feb-18 10:26N 41°49' E 141°34'613.5
2018-Feb-18 10:00N 41°43' E 141°34'613.0
2018-Feb-18 09:30N 41°36' E 141°33'712.7
2018-Feb-18 08:57N 41°29' E 141°33'612.6
2018-Feb-18 08:30N 41°24' E 141°33'813.5
2018-Feb-18 07:56N 41°16' E 141°33'613.2
2018-Feb-18 07:30N 41°10' E 141°33'813.5
2018-Feb-18 06:53N 41°02' E 141°33'1013.8
2018-Feb-18 06:09N 40°52' E 141°32'313.7
2018-Feb-18 05:56N 40°49' E 141°32'  
2018-Feb-14 12:23N 41°10' E 141°33'1513.9
2018-Feb-14 11:18N 41°25' E 141°33'512.6
2018-Feb-14 10:53N 41°29' E 141°30'614.6
2018-Feb-14 10:30N 41°31' E 141°23'715.0
2018-Feb-14 10:01N 41°33' E 141°13'714.3
2018-Feb-14 09:30N 41°35' E 141°04'714.7
2018-Feb-14 09:00N 41°37' E 140°55'714.2
2018-Feb-14 08:30N 41°33' E 140°47'714.6
2018-Feb-14 08:00N 41°29' E 140°39'815.2
2018-Feb-14 07:30N 41°24' E 140°31'815.3
2018-Feb-14 07:00N 41°20' E 140°22'  

Dump ship's entire track history